Time;durP1;ratioP1;P1;durP2;ratioP2;P2;SDS_P1;SDS_P2;PMS_P1;PMS_P2;Temp;Humidity;BMP_temperature;BMP_pressure;BME280_temperature;BME280_humidity;BME280_pressure;Samples;Min_cycle;Max_cycle;Signal;HPM_P1;HPM_P2
2022/11/27 00:02:08;;;;;;;2.35;1.30;;;;;;;;;;5087417;28;20056;-61
2022/11/27 00:04:35;;;;;;;2.90;1.38;;;;;;;;;;5089625;28;20028;-61
2022/11/27 00:07:01;;;;;;;2.10;1.15;;;;;;;;;;5095665;28;20100;-62
2022/11/27 00:09:28;;;;;;;1.55;1.13;;;;;;;;;;5099874;28;20028;-62
2022/11/27 00:11:55;;;;;;;2.35;1.50;;;;;;;;;;5098010;28;20019;-62
2022/11/27 00:14:22;;;;;;;3.00;1.60;;;;;;;;;;5105143;28;20099;-63
2022/11/27 00:16:49;;;;;;;2.60;1.40;;;;;;;;;;5090030;28;20028;-61
2022/11/27 00:36:35;;;;;;;6.68;2.35;;;;;;;;;;5045042;27;2278110;-61
2022/11/27 00:39:02;;;;;;;3.22;1.67;;;;;;;;;;5083514;28;20036;-64
2022/11/27 00:41:29;;;;;;;3.45;1.80;;;;;;;;;;5077733;28;20099;-65
2022/11/27 00:43:57;;;;;;;2.38;1.40;;;;;;;;;;5076052;28;20065;-63
2022/11/27 00:46:25;;;;;;;1.77;1.30;;;;;;;;;;5084437;28;20466;-63
2022/11/27 00:48:51;;;;;;;2.80;1.48;;;;;;;;;;5089584;28;20462;-60
2022/11/27 00:51:20;;;;;;;2.40;1.40;;;;;;;;;;5088702;28;20032;-61
2022/11/27 00:53:47;;;;;;;7.13;1.10;;;;;;;;;;5092944;28;20116;-62
2022/11/27 00:56:21;;;;;;;2.25;1.45;;;;;;;;;;5089299;28;20486;-62
2022/11/27 00:58:48;;;;;;;;;;;;;;;;;;5078195;28;20114;-63
2022/11/27 01:01:19;;;;;;;4.30;2.73;;;;;;;;;;5084449;28;19999;-62
2022/11/27 01:03:46;;;;;;;5.53;2.53;;;;;;;;;;5083544;28;20033;-63
2022/11/27 01:06:13;;;;;;;5.43;2.67;;;;;;;;;;5082744;28;20371;-63
2022/11/27 01:08:40;;;;;;;5.80;2.93;;;;;;;;;;5083672;28;20875;-59
2022/11/27 01:11:07;;;;;;;4.23;2.30;;;;;;;;;;5089427;28;20363;-58
2022/11/27 01:13:35;;;;;;;9.37;3.97;;;;;;;;;;5093591;28;20036;-57
2022/11/27 01:16:10;;;;;;;2.97;2.03;;;;;;;;;;5087686;28;20028;-56
2022/11/27 01:18:37;;;;;;;;;;;;;;;;;;5089259;28;20028;-59
2022/11/27 01:21:06;;;;;;;8.43;3.67;;;;;;;;;;5069329;28;19909;-60
2022/11/27 01:23:34;;;;;;;4.53;2.87;;;;;;;;;;5083149;28;20070;-58
2022/11/27 01:26:03;;;;;;;3.07;2.27;;;;;;;;;;5079236;28;20025;-58
2022/11/27 01:28:30;;;;;;;6.47;3.07;;;;;;;;;;5082256;28;20568;-63
2022/11/27 01:30:57;;;;;;;4.03;3.40;;;;;;;;;;5082451;28;20024;-58
2022/11/27 01:33:24;;;;;;;4.57;3.13;;;;;;;;;;5088247;28;20099;-62
2022/11/27 01:35:59;;;;;;;8.23;3.23;;;;;;;;;;5084250;28;20386;-56
2022/11/27 01:38:32;;;;;;;7.22;3.90;;;;;;;;;;5075145;28;20082;-62
2022/11/27 01:41:00;;;;;;;4.70;2.50;;;;;;;;;;5074903;28;20028;-60
2022/11/27 01:43:40;;;;;;;6.03;3.13;;;;;;;;;;5074880;28;20064;-57
2022/11/27 01:46:16;;;;;;;11.40;2.93;;;;;;;;;;5068924;28;20032;-57
2022/11/27 01:48:43;;;;;;;3.53;2.83;;;;;;;;;;5070037;28;20046;-57
2022/11/27 01:51:09;;;;;;;5.17;3.17;;;;;;;;;;5090303;28;20715;-60
2022/11/27 01:53:36;;;;;;;6.00;2.73;;;;;;;;;;5067936;28;20529;-57
2022/11/27 01:56:04;;;;;;;7.50;3.77;;;;;;;;;;5065765;28;20383;-56
2022/11/27 01:58:33;;;;;;;4.07;3.23;;;;;;;;;;5081646;28;20032;-56
2022/11/27 02:00:59;;;;;;;5.97;4.10;;;;;;;;;;5085062;28;20421;-62
2022/11/27 02:03:30;;;;;;;7.17;4.83;;;;;;;;;;5087360;28;20078;-57
2022/11/27 02:05:57;;;;;;;7.70;4.23;;;;;;;;;;5080249;28;20387;-57
2022/11/27 02:08:27;;;;;;;6.23;2.63;;;;;;;;;;5076573;28;20024;-58
2022/11/27 02:11:09;;;;;;;4.20;3.37;;;;;;;;;;5062742;28;20176;-62
2022/11/27 02:14:13;;;;;;;5.53;3.30;;;;;;;;;;5076744;28;20031;-61
2022/11/27 02:17:01;;;;;;;4.40;3.30;;;;;;;;;;5053390;28;20086;-57
2022/11/27 02:19:46;;;;;;;7.22;3.28;;;;;;;;;;5085735;28;20020;-56
2022/11/27 02:22:13;;;;;;;4.60;3.47;;;;;;;;;;5082337;28;20074;-63
2022/11/27 02:24:59;;;;;;;6.53;4.43;;;;;;;;;;5089903;28;20044;-60
2022/11/27 02:27:49;;;;;;;8.80;4.03;;;;;;;;;;5082696;28;20063;-63
2022/11/27 02:30:22;;;;;;;6.77;3.87;;;;;;;;;;5070071;28;20082;-62
2022/11/27 02:32:57;;;;;;;11.60;4.50;;;;;;;;;;5071314;28;20029;-62
2022/11/27 02:35:33;;;;;;;6.37;3.57;;;;;;;;;;5068806;28;20105;-61
2022/11/27 02:38:02;;;;;;;18.47;3.90;;;;;;;;;;5067366;28;20025;-62
2022/11/27 02:40:29;;;;;;;7.33;4.00;;;;;;;;;;5072794;28;20576;-62
2022/11/27 02:43:16;;;;;;;3.60;2.67;;;;;;;;;;5073434;28;20024;-62
2022/11/27 02:45:48;;;;;;;2.73;2.17;;;;;;;;;;5072600;28;20486;-62
2022/11/27 02:48:16;;;;;;;6.23;2.83;;;;;;;;;;5072744;28;20497;-62
2022/11/27 02:50:44;;;;;;;2.63;1.77;;;;;;;;;;5072902;28;20024;-62
2022/11/27 02:53:13;;;;;;;3.43;2.57;;;;;;;;;;5068992;28;20475;-62
2022/11/27 02:55:40;;;;;;;3.90;2.23;;;;;;;;;;5068086;28;20021;-62
2022/11/27 02:58:09;;;;;;;5.63;3.37;;;;;;;;;;5067941;28;20025;-62
2022/11/27 03:00:37;;;;;;;28.03;4.03;;;;;;;;;;5067343;28;20035;-61
2022/11/27 03:03:06;;;;;;;5.87;3.60;;;;;;;;;;5072950;28;20413;-62
2022/11/27 03:05:35;;;;;;;4.53;3.03;;;;;;;;;;5071755;28;20413;-62
2022/11/27 03:08:05;;;;;;;6.03;3.43;;;;;;;;;;5073067;28;20086;-61
2022/11/27 03:10:52;;;;;;;5.27;3.47;;;;;;;;;;5072536;28;20025;-62
2022/11/27 03:13:19;;;;;;;4.77;3.43;;;;;;;;;;5073002;28;20044;-62
2022/11/27 03:15:51;;;;;;;9.63;3.27;;;;;;;;;;5067608;28;20360;-61
2022/11/27 03:18:27;;;;;;;3.43;2.60;;;;;;;;;;5067510;28;20025;-62
2022/11/27 03:21:03;;;;;;;5.23;2.80;;;;;;;;;;5067355;28;20356;-61
2022/11/27 03:23:30;;;;;;;4.23;2.97;;;;;;;;;;5067793;28;20074;-62
2022/11/27 03:25:57;;;;;;;6.23;3.83;;;;;;;;;;5072775;28;20078;-62
2022/11/27 03:28:24;;;;;;;5.73;2.87;;;;;;;;;;5063063;28;20077;-62
2022/11/27 03:30:50;;;;;;;3.97;1.90;;;;;;;;;;5073143;28;20501;-61
2022/11/27 03:33:18;;;;;;;5.23;2.67;;;;;;;;;;5059141;28;20162;-61
2022/11/27 03:35:45;;;;;;;6.23;2.50;;;;;;;;;;5071207;28;20081;-61
2022/11/27 03:38:12;;;;;;;4.07;2.27;;;;;;;;;;5067030;28;20036;-63
2022/11/27 03:40:45;;;;;;;7.20;3.00;;;;;;;;;;5064451;28;20048;-62
2022/11/27 03:43:33;;;;;;;3.67;2.50;;;;;;;;;;5047154;28;20411;-61
2022/11/27 03:46:09;;;;;;;3.47;2.13;;;;;;;;;;5051609;28;20494;-62
2022/11/27 03:48:41;;;;;;;2.17;1.70;;;;;;;;;;5073534;28;20027;-62
2022/11/27 03:51:17;;;;;;;3.70;2.30;;;;;;;;;;5072468;28;20086;-63
2022/11/27 03:53:59;;;;;;;8.83;1.60;;;;;;;;;;5055304;28;20025;-63
2022/11/27 03:56:34;;;;;;;3.93;1.87;;;;;;;;;;5072588;28;20059;-62
2022/11/27 03:59:00;;;;;;;;;;;;;;;;;;5066667;28;20032;-62
2022/11/27 04:01:28;;;;;;;4.07;2.43;;;;;;;;;;5068298;28;19911;-62
2022/11/27 04:03:55;;;;;;;3.03;2.10;;;;;;;;;;5071639;28;20055;-62
2022/11/27 04:06:21;;;;;;;2.70;1.57;;;;;;;;;;5088143;28;20528;-62
2022/11/27 04:08:48;;;;;;;2.73;1.87;;;;;;;;;;5068765;28;20036;-62
2022/11/27 04:11:18;;;;;;;3.97;2.43;;;;;;;;;;5072580;28;20070;-62
2022/11/27 04:13:45;;;;;;;3.87;2.20;;;;;;;;;;5072892;28;20048;-62
2022/11/27 04:16:11;;;;;;;2.77;1.90;;;;;;;;;;5072782;28;20033;-62
2022/11/27 04:18:38;;;;;;;4.50;2.37;;;;;;;;;;5072839;28;20118;-62
2022/11/27 04:21:05;;;;;;;4.07;2.60;;;;;;;;;;5073713;28;20031;-63
2022/11/27 04:23:31;;;;;;;3.67;2.30;;;;;;;;;;5067146;28;20028;-62
2022/11/27 04:25:58;;;;;;;4.10;2.00;;;;;;;;;;5067507;28;20033;-62
2022/11/27 04:28:25;;;;;;;3.13;1.80;;;;;;;;;;5067596;28;20025;-62
2022/11/27 04:30:53;;;;;;;4.90;1.90;;;;;;;;;;5068133;28;20480;-62
2022/11/27 04:33:20;;;;;;;2.23;1.50;;;;;;;;;;5072861;28;20020;-62
2022/11/27 04:35:47;;;;;;;1.90;1.50;;;;;;;;;;5072274;28;20024;-62
2022/11/27 04:38:13;;;;;;;5.43;2.93;;;;;;;;;;5074620;28;20028;-63
2022/11/27 04:40:40;;;;;;;3.23;2.37;;;;;;;;;;5074788;28;20113;-62
2022/11/27 04:43:07;;;;;;;2.27;1.80;;;;;;;;;;5071083;28;20016;-62
2022/11/27 04:45:33;;;;;;;3.20;2.33;;;;;;;;;;5066967;28;20064;-62
2022/11/27 04:48:01;;;;;;;4.20;2.77;;;;;;;;;;5067237;28;20020;-62
2022/11/27 04:50:27;;;;;;;4.67;2.70;;;;;;;;;;5066929;28;20056;-62
2022/11/27 04:52:54;;;;;;;2.13;1.70;;;;;;;;;;5067587;28;20020;-62
2022/11/27 04:55:21;;;;;;;4.53;3.43;;;;;;;;;;5072305;28;20016;-62
2022/11/27 04:57:47;;;;;;;4.10;2.83;;;;;;;;;;5083979;28;20027;-61
2022/11/27 05:00:14;;;;;;;3.83;2.60;;;;;;;;;;5081142;28;20036;-62
2022/11/27 05:02:41;;;;;;;2.07;1.60;;;;;;;;;;5072361;28;20021;-62
2022/11/27 05:05:08;;;;;;;4.77;2.70;;;;;;;;;;5071407;28;20110;-62
2022/11/27 05:07:34;;;;;;;3.43;2.47;;;;;;;;;;5067068;28;20028;-62
2022/11/27 05:10:01;;;;;;;3.87;2.40;;;;;;;;;;5066826;28;20025;-62
2022/11/27 05:12:28;;;;;;;3.40;2.33;;;;;;;;;;5069492;28;20059;-62
2022/11/27 05:14:55;;;;;;;4.37;2.73;;;;;;;;;;5071448;28;20031;-62
2022/11/27 05:17:21;;;;;;;4.13;2.77;;;;;;;;;;5093542;28;20026;-63
2022/11/27 05:19:48;;;;;;;2.87;1.90;;;;;;;;;;5075975;28;20028;-62
2022/11/27 05:22:15;;;;;;;3.20;2.57;;;;;;;;;;5075563;28;20475;-62
2022/11/27 05:24:41;;;;;;;2.63;1.97;;;;;;;;;;5075751;28;20037;-62
2022/11/27 05:27:09;;;;;;;6.00;3.53;;;;;;;;;;5075750;28;20082;-62
2022/11/27 05:29:35;;;;;;;7.40;3.57;;;;;;;;;;5070187;28;20032;-62
2022/11/27 05:32:02;;;;;;;6.97;3.80;;;;;;;;;;5070352;28;20509;-62
2022/11/27 05:34:29;;;;;;;3.87;2.43;;;;;;;;;;5071160;28;20020;-62
2022/11/27 05:36:55;;;;;;;3.30;2.17;;;;;;;;;;5070172;28;20119;-62
2022/11/27 05:39:22;;;;;;;4.97;3.07;;;;;;;;;;5074249;28;20029;-62
2022/11/27 05:41:49;;;;;;;5.77;1.83;;;;;;;;;;5075486;28;20033;-62
2022/11/27 05:44:16;;;;;;;8.67;3.10;;;;;;;;;;5075015;28;20122;-62
2022/11/27 05:46:43;;;;;;;3.27;2.00;;;;;;;;;;5075331;28;20024;-62
2022/11/27 05:49:12;;;;;;;3.97;2.27;;;;;;;;;;5075057;28;20036;-62
2022/11/27 05:51:38;;;;;;;3.17;2.30;;;;;;;;;;5071253;28;20032;-62
2022/11/27 05:54:05;;;;;;;3.53;2.53;;;;;;;;;;5076865;28;20036;-62
2022/11/27 05:56:32;;;;;;;4.03;3.17;;;;;;;;;;5069614;28;20025;-62
2022/11/27 05:58:58;;;;;;;4.40;3.03;;;;;;;;;;5069552;28;20099;-62
2022/11/27 06:01:25;;;;;;;1.73;1.30;;;;;;;;;;5073740;28;20024;-62
2022/11/27 06:03:52;;;;;;;3.40;2.13;;;;;;;;;;5074334;28;20020;-62
2022/11/27 06:06:19;;;;;;;2.00;1.43;;;;;;;;;;5075148;28;20521;-62
2022/11/27 06:08:46;;;;;;;2.30;1.90;;;;;;;;;;5074761;28;20028;-62
2022/11/27 06:11:15;;;;;;;1.73;1.37;;;;;;;;;;5081449;28;20027;-61
2022/11/27 06:13:42;;;;;;;2.67;2.07;;;;;;;;;;5070839;28;20838;-61
2022/11/27 06:16:10;;;;;;;3.37;1.70;;;;;;;;;;5069400;28;20352;-62
2022/11/27 06:18:37;;;;;;;2.90;2.07;;;;;;;;;;5069516;28;20025;-62
2022/11/27 06:21:10;;;;;;;3.37;2.10;;;;;;;;;;5069040;28;20378;-62
2022/11/27 06:23:37;;;;;;;5.50;3.90;;;;;;;;;;5073002;28;20040;-62
2022/11/27 06:26:11;;;;;;;7.03;3.40;;;;;;;;;;5074318;28;20036;-62
2022/11/27 06:28:38;;;;;;;3.27;2.37;;;;;;;;;;5076677;28;20036;-62
2022/11/27 06:31:08;;;;;;;5.33;2.53;;;;;;;;;;5093727;28;20044;-62
2022/11/27 06:33:35;;;;;;;5.10;3.30;;;;;;;;;;5074693;28;20020;-62
2022/11/27 06:36:03;;;;;;;3.93;2.40;;;;;;;;;;5070598;28;20107;-62
2022/11/27 06:38:31;;;;;;;3.83;2.97;;;;;;;;;;5068575;28;20028;-62
2022/11/27 06:41:08;;;;;;;5.20;2.67;;;;;;;;;;5069024;28;20035;-62
2022/11/27 06:43:35;;;;;;;3.50;1.87;;;;;;;;;;5049219;28;20102;-62
2022/11/27 06:46:02;;;;;;;1.23;1.10;;;;;;;;;;5052416;28;20428;-61
2022/11/27 06:48:29;;;;;;;2.43;1.87;;;;;;;;;;5088341;28;20747;-62
2022/11/27 06:51:00;;;;;;;4.53;2.53;;;;;;;;;;5094581;28;20031;-62
2022/11/27 06:53:27;;;;;;;2.10;1.67;;;;;;;;;;5075160;28;20028;-62
2022/11/27 06:55:54;;;;;;;23.57;4.50;;;;;;;;;;5074166;28;20103;-61
2022/11/27 06:58:20;;;;;;;3.03;2.20;;;;;;;;;;5070022;28;20115;-62
2022/11/27 07:00:47;;;;;;;1.47;1.10;;;;;;;;;;5068621;28;20020;-62
2022/11/27 07:03:14;;;;;;;2.03;1.63;;;;;;;;;;5068481;28;20039;-61
2022/11/27 07:05:40;;;;;;;3.87;2.73;;;;;;;;;;5072595;28;20117;-62
2022/11/27 07:08:07;;;;;;;1.73;1.30;;;;;;;;;;5076157;28;20031;-62
2022/11/27 07:10:35;;;;;;;3.27;1.83;;;;;;;;;;5073779;28;20020;-62
2022/11/27 07:13:02;;;;;;;5.00;2.27;;;;;;;;;;5073565;28;20032;-62
2022/11/27 07:15:28;;;;;;;3.07;2.27;;;;;;;;;;5073893;28;20028;-60
2022/11/27 07:17:55;;;;;;;4.00;3.00;;;;;;;;;;5073446;28;20419;-61
2022/11/27 07:20:22;;;;;;;7.80;3.63;;;;;;;;;;5070535;28;20024;-60
2022/11/27 07:22:48;;;;;;;3.97;3.13;;;;;;;;;;5076940;28;20015;-60
2022/11/27 07:25:15;;;;;;;2.57;2.00;;;;;;;;;;5088589;28;20047;-60
2022/11/27 07:27:42;;;;;;;2.20;1.97;;;;;;;;;;5078161;28;20024;-60
2022/11/27 07:30:09;;;;;;;3.17;1.97;;;;;;;;;;5070651;28;20028;-60
2022/11/27 07:32:35;;;;;;;4.30;2.70;;;;;;;;;;5074443;28;20066;-60
2022/11/27 07:35:02;;;;;;;4.43;3.20;;;;;;;;;;5079966;28;20059;-60
2022/11/27 07:37:32;;;;;;;6.50;3.53;;;;;;;;;;5077650;28;20029;-60
2022/11/27 07:39:59;;;;;;;2.80;2.30;;;;;;;;;;5073355;28;20078;-60
2022/11/27 07:42:25;;;;;;;4.80;3.53;;;;;;;;;;5070158;28;20028;-60
2022/11/27 07:44:52;;;;;;;4.23;3.27;;;;;;;;;;5066432;28;20041;-60
2022/11/27 07:47:19;;;;;;;5.40;3.67;;;;;;;;;;5067665;28;20028;-60
2022/11/27 07:49:45;;;;;;;4.70;3.70;;;;;;;;;;5068008;28;20024;-60
2022/11/27 07:52:12;;;;;;;3.50;2.77;;;;;;;;;;5069222;28;20557;-61
2022/11/27 07:54:39;;;;;;;5.47;4.07;;;;;;;;;;5073040;28;20029;-60
2022/11/27 07:57:05;;;;;;;6.73;3.80;;;;;;;;;;5077713;28;20028;-60
2022/11/27 07:59:32;;;;;;;3.50;2.63;;;;;;;;;;5070974;28;20077;-59
2022/11/27 08:01:58;;;;;;;5.83;3.63;;;;;;;;;;5071087;28;20020;-60
2022/11/27 08:04:26;;;;;;;3.43;2.37;;;;;;;;;;5067845;28;20040;-61
2022/11/27 08:06:54;;;;;;;3.70;2.60;;;;;;;;;;5066684;28;20482;-60
2022/11/27 08:09:21;;;;;;;2.43;1.97;;;;;;;;;;5066360;28;20036;-60
2022/11/27 08:11:47;;;;;;;4.17;3.50;;;;;;;;;;5066722;28;20028;-60
2022/11/27 08:14:15;;;;;;;3.20;2.73;;;;;;;;;;5067547;28;20410;-60
2022/11/27 08:16:42;;;;;;;3.33;2.43;;;;;;;;;;5082747;28;20042;-60
2022/11/27 08:19:09;;;;;;;8.20;2.87;;;;;;;;;;5092333;28;20082;-60
2022/11/27 08:21:36;;;;;;;4.07;2.43;;;;;;;;;;5092434;28;20024;-60
2022/11/27 08:24:03;;;;;;;4.67;3.77;;;;;;;;;;5091959;28;20031;-60
2022/11/27 08:26:30;;;;;;;4.57;3.37;;;;;;;;;;5091110;28;20504;-60
2022/11/27 08:28:56;;;;;;;3.77;3.17;;;;;;;;;;5086654;28;20027;-60
2022/11/27 08:31:23;;;;;;;2.77;2.13;;;;;;;;;;5086856;28;20443;-60
2022/11/27 08:33:50;;;;;;;2.73;2.07;;;;;;;;;;5086808;28;20543;-60
2022/11/27 08:36:17;;;;;;;3.00;2.37;;;;;;;;;;5081030;28;20032;-60
2022/11/27 08:38:44;;;;;;;5.00;2.90;;;;;;;;;;5071966;28;20020;-60
2022/11/27 08:41:11;;;;;;;4.43;3.07;;;;;;;;;;5090825;28;20071;-60
2022/11/27 08:43:37;;;;;;;3.77;3.13;;;;;;;;;;5091869;28;20473;-60
2022/11/27 08:46:05;;;;;;;2.90;2.33;;;;;;;;;;5092972;28;21209;-60
2022/11/27 08:48:31;;;;;;;3.93;3.20;;;;;;;;;;5095479;28;20023;-60
2022/11/27 08:50:58;;;;;;;4.50;3.23;;;;;;;;;;5090661;28;20714;-60
2022/11/27 08:53:25;;;;;;;3.97;2.77;;;;;;;;;;5090622;28;20024;-60
2022/11/27 08:55:51;;;;;;;4.67;3.50;;;;;;;;;;5073582;28;20036;-60
2022/11/27 08:58:18;;;;;;;5.00;3.00;;;;;;;;;;5069958;28;20025;-60
2022/11/27 09:00:45;;;;;;;4.40;3.37;;;;;;;;;;5075331;28;20020;-61
2022/11/27 09:03:12;;;;;;;4.20;3.07;;;;;;;;;;5075727;28;20419;-60
2022/11/27 09:05:42;;;;;;;5.30;3.00;;;;;;;;;;5075378;28;20085;-60
2022/11/27 09:08:08;;;;;;;4.43;2.90;;;;;;;;;;5075626;28;20108;-60
2022/11/27 09:10:36;;;;;;;4.50;3.00;;;;;;;;;;5057507;28;20539;-60
2022/11/27 09:13:03;;;;;;;3.73;2.70;;;;;;;;;;5075732;28;20027;-60
2022/11/27 09:15:29;;;;;;;2.50;1.90;;;;;;;;;;5089935;28;20058;-61
2022/11/27 09:17:56;;;;;;;4.60;2.83;;;;;;;;;;5089955;28;20028;-64
2022/11/27 09:20:23;;;;;;;2.30;1.60;;;;;;;;;;5090098;28;20093;-59
2022/11/27 09:22:50;;;;;;;3.00;2.47;;;;;;;;;;5094813;28;20027;-60
2022/11/27 09:25:16;;;;;;;4.37;3.20;;;;;;;;;;5095486;28;20375;-60
2022/11/27 09:27:43;;;;;;;5.07;3.57;;;;;;;;;;5092872;28;20024;-60
2022/11/27 09:30:10;;;;;;;6.13;2.97;;;;;;;;;;5075190;28;20056;-60
2022/11/27 09:32:37;;;;;;;2.03;1.60;;;;;;;;;;5075017;28;20384;-60
2022/11/27 09:35:03;;;;;;;3.30;2.50;;;;;;;;;;5069479;28;20044;-60
2022/11/27 09:37:30;;;;;;;3.27;2.13;;;;;;;;;;5069687;28;20424;-60
2022/11/27 09:39:58;;;;;;;3.60;2.77;;;;;;;;;;5069260;28;20506;-61
2022/11/27 09:42:31;;;;;;;7.03;2.20;;;;;;;;;;5069397;28;20529;-60
2022/11/27 09:44:59;;;;;;;3.33;2.70;;;;;;;;;;5073601;28;20550;-60
2022/11/27 09:47:34;;;;;;;2.37;1.77;;;;;;;;;;5087081;28;20444;-60
2022/11/27 09:50:01;;;;;;;6.20;3.50;;;;;;;;;;5095029;28;20020;-60
2022/11/27 09:52:37;;;;;;;5.90;4.77;;;;;;;;;;5094928;28;20024;-60
2022/11/27 09:55:22;;;;;;;5.17;3.87;;;;;;;;;;5094892;28;20474;-60
2022/11/27 09:58:13;;;;;;;4.38;3.40;;;;;;;;;;5088386;28;20028;-60
2022/11/27 10:00:40;;;;;;;7.47;5.60;;;;;;;;;;5087762;28;20024;-60
2022/11/27 10:03:14;;;;;;;4.27;3.30;;;;;;;;;;5088875;28;20032;-60
2022/11/27 10:05:52;;;;;;;4.00;2.87;;;;;;;;;;5089436;28;20105;-60
2022/11/27 10:08:31;;;;;;;8.10;4.63;;;;;;;;;;5094617;28;20092;-60
2022/11/27 10:10:58;;;;;;;9.03;4.50;;;;;;;;;;5094638;28;20046;-60
2022/11/27 10:13:32;;;;;;;8.00;5.63;;;;;;;;;;5094765;28;20031;-60
2022/11/27 10:16:03;;;;;;;8.55;5.78;;;;;;;;;;5094610;28;20031;-60
2022/11/27 10:18:49;;;;;;;4.70;3.67;;;;;;;;;;5092575;28;20050;-60
2022/11/27 10:21:16;;;;;;;4.77;3.87;;;;;;;;;;5068675;28;20020;-59
2022/11/27 10:23:55;;;;;;;10.87;4.03;;;;;;;;;;5068674;28;20111;-60
2022/11/27 10:26:41;;;;;;;7.37;5.70;;;;;;;;;;5068004;28;20091;-60
2022/11/27 10:29:16;;;;;;;6.97;5.90;;;;;;;;;;5071153;28;20036;-60
2022/11/27 10:31:47;;;;;;;5.97;4.78;;;;;;;;;;5074086;28;20017;-60
2022/11/27 10:34:28;;;;;;;4.73;3.77;;;;;;;;;;5074008;28;20051;-60
2022/11/27 10:36:55;;;;;;;5.10;3.77;;;;;;;;;;5073957;28;20046;-60
2022/11/27 10:39:33;;;;;;;3.57;2.93;;;;;;;;;;5077007;28;20012;-60
2022/11/27 10:42:06;;;;;;;3.73;2.87;;;;;;;;;;5089169;28;20027;-60
2022/11/27 10:44:35;;;;;;;7.97;4.63;;;;;;;;;;5088096;28;20447;-59
2022/11/27 10:47:03;;;;;;;4.53;3.40;;;;;;;;;;5088129;28;20034;-60
2022/11/27 10:49:31;;;;;;;14.87;6.37;;;;;;;;;;5088134;28;20506;-60
2022/11/27 10:51:59;;;;;;;4.83;3.13;;;;;;;;;;5092508;28;20471;-60
2022/11/27 10:54:34;;;;;;;4.53;3.47;;;;;;;;;;5093842;28;20032;-59
2022/11/27 10:57:00;;;;;;;;;;;;;;;;;;5094088;28;20463;-60
2022/11/27 10:59:39;;;;;;;4.43;3.70;;;;;;;;;;5092465;28;19904;-60
2022/11/27 11:02:08;;;;;;;4.07;3.27;;;;;;;;;;5073573;28;20090;-59
2022/11/27 11:04:34;;;;;;;3.70;3.13;;;;;;;;;;5067805;28;20040;-60
2022/11/27 11:07:01;;;;;;;4.53;3.53;;;;;;;;;;5067849;28;20029;-60
2022/11/27 11:09:29;;;;;;;7.23;4.77;;;;;;;;;;5066943;28;20044;-59
2022/11/27 11:12:09;;;;;;;7.70;4.70;;;;;;;;;;5067521;28;20044;-61
2022/11/27 11:14:35;;;;;;;6.00;3.53;;;;;;;;;;5072499;28;20019;-60
2022/11/27 11:17:15;;;;;;;3.97;2.93;;;;;;;;;;5073089;28;20479;-60
2022/11/27 11:19:42;;;;;;;5.70;3.13;;;;;;;;;;5074259;28;20027;-60
2022/11/27 11:22:16;;;;;;;8.43;3.77;;;;;;;;;;5093051;28;20035;-59
2022/11/27 11:24:47;;;;;;;3.90;2.83;;;;;;;;;;5092348;28;20111;-60
2022/11/27 11:27:14;;;;;;;7.03;3.53;;;;;;;;;;5087828;28;20734;-59
2022/11/27 11:29:42;;;;;;;2.57;2.23;;;;;;;;;;5087494;28;20017;-60
2022/11/27 11:32:12;;;;;;;4.70;3.57;;;;;;;;;;5087637;28;20081;-60
2022/11/27 11:34:46;;;;;;;5.60;3.50;;;;;;;;;;5087366;28;20032;-60
2022/11/27 11:37:19;;;;;;;5.47;3.67;;;;;;;;;;5092568;28;20072;-60
2022/11/27 11:39:48;;;;;;;3.73;2.97;;;;;;;;;;5093113;28;20016;-60
2022/11/27 11:42:21;;;;;;;3.07;2.43;;;;;;;;;;5072749;28;20024;-60
2022/11/27 11:44:53;;;;;;;6.70;4.13;;;;;;;;;;5072377;28;20039;-59
2022/11/27 11:47:22;;;;;;;6.03;3.63;;;;;;;;;;5071449;28;20032;-60
2022/11/27 11:49:49;;;;;;;4.40;3.00;;;;;;;;;;5066600;28;20465;-60
2022/11/27 11:52:20;;;;;;;3.43;2.97;;;;;;;;;;5067017;28;20020;-60
2022/11/27 11:54:49;;;;;;;4.90;4.00;;;;;;;;;;5066980;28;20104;-60
2022/11/27 11:57:27;;;;;;;4.30;3.43;;;;;;;;;;5067488;28;20111;-60
2022/11/27 12:00:02;;;;;;;4.07;2.97;;;;;;;;;;5072246;28;20498;-61
2022/11/27 12:02:33;;;;;;;3.88;2.97;;;;;;;;;;5092677;28;20466;-59
2022/11/27 12:05:18;;;;;;;4.13;3.40;;;;;;;;;;5074263;28;20096;-59
2022/11/27 12:08:03;;;;;;;6.07;3.92;;;;;;;;;;5092592;28;20035;-59
2022/11/27 12:10:33;;;;;;;3.90;3.17;;;;;;;;;;5089749;28;20032;-60
2022/11/27 12:13:19;;;;;;;10.37;3.47;;;;;;;;;;5086913;28;20406;-60
2022/11/27 12:16:03;;;;;;;4.50;2.83;;;;;;;;;;5086916;28;20020;-60
2022/11/27 12:18:39;;;;;;;4.93;3.50;;;;;;;;;;5086978;28;20114;-59
2022/11/27 12:21:14;;;;;;;3.80;2.90;;;;;;;;;;5085519;28;20021;-60
2022/11/27 12:23:40;;;;;;;3.33;2.83;;;;;;;;;;5072134;28;20479;-60
2022/11/27 12:26:14;;;;;;;4.50;3.53;;;;;;;;;;5072010;28;20094;-60
2022/11/27 12:28:58;;;;;;;3.90;2.93;;;;;;;;;;5071947;28;20179;-60
2022/11/27 12:31:25;;;;;;;4.97;3.78;;;;;;;;;;5072232;28;20024;-59
2022/11/27 12:34:17;;;;;;;4.60;2.93;;;;;;;;;;5066244;28;20124;-60
2022/11/27 12:37:08;;;;;;;3.00;2.47;;;;;;;;;;5066543;28;20041;-60
2022/11/27 12:39:34;;;;;;;2.57;2.17;;;;;;;;;;5066367;28;20394;-60
2022/11/27 12:42:08;;;;;;;4.80;2.53;;;;;;;;;;5078661;28;20490;-60
2022/11/27 12:44:35;;;;;;;2.83;2.53;;;;;;;;;;5091292;28;20051;-60
2022/11/27 12:47:11;;;;;;;3.43;2.63;;;;;;;;;;5092114;28;20020;-59
2022/11/27 12:49:45;;;;;;;10.43;3.73;;;;;;;;;;5092158;28;20024;-60
2022/11/27 12:52:15;;;;;;;6.33;3.80;;;;;;;;;;5092157;28;20043;-59
2022/11/27 12:54:51;;;;;;;4.77;2.93;;;;;;;;;;5089857;28;20020;-60
2022/11/27 12:57:20;;;;;;;3.07;2.00;;;;;;;;;;5086415;28;20024;-59
2022/11/27 12:59:49;;;;;;;4.03;2.07;;;;;;;;;;5086304;28;20020;-59
2022/11/27 13:02:36;;;;;;;4.17;3.20;;;;;;;;;;5074706;28;20028;-59
2022/11/27 13:05:07;;;;;;;3.20;2.07;;;;;;;;;;5068962;28;20033;-60
2022/11/27 13:07:46;;;;;;;5.13;3.20;;;;;;;;;;5071738;28;20387;-59
2022/11/27 13:10:20;;;;;;;3.50;2.50;;;;;;;;;;5071617;28;20027;-59
2022/11/27 13:12:47;;;;;;;7.70;3.72;;;;;;;;;;5079873;28;20077;-60
2022/11/27 13:15:31;;;;;;;3.93;3.13;;;;;;;;;;5091689;28;20028;-60
2022/11/27 13:18:18;;;;;;;15.85;3.72;;;;;;;;;;5087108;28;20135;-60
2022/11/27 13:20:46;;;;;;;6.83;3.40;;;;;;;;;;5086068;28;20441;-60
2022/11/27 13:23:13;;;;;;;3.23;2.60;;;;;;;;;;5086320;28;20114;-60
2022/11/27 13:39:37;;;;;;;9.23;3.23;;;;;;;;;;5170107;27;20475;-60
2022/11/27 13:42:06;;;;;;;3.70;2.43;;;;;;;;;;5049330;27;2089213;-61
2022/11/27 13:44:36;;;;;;;3.57;2.43;;;;;;;;;;5121872;28;20030;-61
2022/11/27 13:47:21;;;;;;;2.73;1.90;;;;;;;;;;5104065;28;20085;-61
2022/11/27 13:49:47;;;;;;;;;;;;;;;;;;5104544;28;20514;-61
2022/11/27 13:52:16;;;;;;;4.13;2.97;;;;;;;;;;5109750;28;19904;-61
2022/11/27 13:55:02;;;;;;;5.10;3.27;;;;;;;;;;5109762;28;20047;-61
2022/11/27 13:57:29;;;;;;;6.90;2.87;;;;;;;;;;5109691;28;20090;-61
2022/11/27 14:00:05;;;;;;;4.10;2.97;;;;;;;;;;5109639;28;20016;-61
2022/11/27 14:02:48;;;;;;;6.63;2.40;;;;;;;;;;5107942;28;20023;-61
2022/11/27 14:05:16;;;;;;;3.53;2.53;;;;;;;;;;5103812;28;20040;-61
2022/11/27 14:07:51;;;;;;;6.23;3.27;;;;;;;;;;5103777;28;20023;-61
2022/11/27 14:10:20;;;;;;;3.37;1.80;;;;;;;;;;5103723;28;20020;-61
2022/11/27 14:12:55;;;;;;;2.90;1.90;;;;;;;;;;5086766;28;20024;-61
2022/11/27 14:15:23;;;;;;;4.25;2.47;;;;;;;;;;5108671;28;20535;-61
2022/11/27 14:17:52;;;;;;;3.27;2.20;;;;;;;;;;5107993;28;20024;-61
2022/11/27 14:20:20;;;;;;;10.93;2.80;;;;;;;;;;5109153;28;20024;-61
2022/11/27 14:22:47;;;;;;;4.93;2.90;;;;;;;;;;5108807;28;20032;-61
2022/11/27 14:25:43;;;;;;;20.67;5.10;;;;;;;;;;5106929;28;20107;-61
2022/11/27 14:28:15;;;;;;;5.53;3.55;;;;;;;;;;5086117;28;20047;-61
2022/11/27 14:30:45;;;;;;;9.20;4.50;;;;;;;;;;5102770;28;20149;-61
2022/11/27 14:33:19;;;;;;;5.97;4.20;;;;;;;;;;5102907;28;20103;-61
2022/11/27 14:35:50;;;;;;;8.55;5.00;;;;;;;;;;5106036;28;20020;-62
2022/11/27 14:38:17;;;;;;;8.37;6.23;;;;;;;;;;5108589;28;20095;-61
2022/11/27 14:40:45;;;;;;;5.57;4.97;;;;;;;;;;5094737;28;20024;-61
2022/11/27 14:43:19;;;;;;;12.33;6.77;;;;;;;;;;5095209;28;20024;-61
2022/11/27 14:45:47;;;;;;;10.10;4.87;;;;;;;;;;5095087;28;20101;-61
2022/11/27 14:48:34;;;;;;;10.07;5.03;;;;;;;;;;5090788;28;20093;-62
2022/11/27 14:51:01;;;;;;;10.33;5.77;;;;;;;;;;5089343;28;20069;-62
2022/11/27 14:53:28;;;;;;;8.87;5.83;;;;;;;;;;5089274;28;20409;-61
2022/11/27 14:55:57;;;;;;;7.50;5.10;;;;;;;;;;5089282;28;20027;-61
2022/11/27 14:58:28;;;;;;;6.50;4.77;;;;;;;;;;5092995;28;20024;-62
2022/11/27 15:01:02;;;;;;;5.40;3.63;;;;;;;;;;5094465;28;20032;-61
2022/11/27 15:03:28;;;;;;;7.90;4.47;;;;;;;;;;5095007;28;20119;-61
2022/11/27 15:05:55;;;;;;;6.27;3.93;;;;;;;;;;5094364;28;20059;-61
2022/11/27 15:08:22;;;;;;;5.33;3.20;;;;;;;;;;5094701;28;20027;-62
2022/11/27 15:10:52;;;;;;;6.00;4.13;;;;;;;;;;5089911;28;20035;-62
2022/11/27 15:13:21;;;;;;;6.07;4.93;;;;;;;;;;5089121;28;20020;-62
2022/11/27 15:15:54;;;;;;;8.23;4.30;;;;;;;;;;5088609;28;20063;-62
2022/11/27 15:18:21;;;;;;;7.67;4.80;;;;;;;;;;5089041;28;20052;-62
2022/11/27 15:20:48;;;;;;;5.47;4.00;;;;;;;;;;5093071;28;20050;-62
2022/11/27 15:23:18;;;;;;;9.43;5.03;;;;;;;;;;5094381;28;20020;-61
2022/11/27 15:25:46;;;;;;;6.67;4.53;;;;;;;;;;5094048;28;20036;-61
2022/11/27 15:28:24;;;;;;;5.93;4.00;;;;;;;;;;5094029;28;20432;-62
2022/11/27 15:30:51;;;;;;;8.33;4.57;;;;;;;;;;5094333;28;20031;-61
2022/11/27 15:33:31;;;;;;;5.53;4.13;;;;;;;;;;5089030;28;20086;-62